Time;durP1;ratioP1;P1;durP2;ratioP2;P2;SDS_P1;SDS_P2;PMS_P1;PMS_P2;Temp;Humidity;BMP_temperature;BMP_pressure;BME280_temperature;BME280_humidity;BME280_pressure;Samples;Min_cycle;Max_cycle;Signal;HPM_P1;HPM_P2
2023/04/19 00:02:19;;;;;;;10.57;4.82;;;;;;;10.97;100.00;99665.97;5107451;28;20023;-32
2023/04/19 00:04:46;;;;;;;8.73;4.65;;;;;;;10.85;100.00;99655.28;5107239;28;20076;-31
2023/04/19 00:07:12;;;;;;;8.55;4.50;;;;;;;10.96;100.00;99655.50;5106776;28;20047;-31
2023/04/19 00:09:38;;;;;;;7.50;4.53;;;;;;;11.02;100.00;99654.59;5107122;28;20110;-33
2023/04/19 00:12:06;;;;;;;7.72;4.45;;;;;;;11.14;100.00;99649.25;5106823;28;20457;-32
2023/04/19 00:14:33;;;;;;;8.75;4.38;;;;;;;11.11;100.00;99639.84;5107558;28;20143;-31
2023/04/19 00:16:59;;;;;;;7.65;3.80;;;;;;;11.14;100.00;99650.06;5106776;28;20488;-32
2023/04/19 00:19:24;;;;;;;8.50;3.90;;;;;;;11.03;100.00;99642.84;5106748;28;20031;-31
2023/04/19 00:21:50;;;;;;;7.78;4.05;;;;;;;11.06;100.00;99621.06;5106985;28;20077;-31
2023/04/19 00:24:16;;;;;;;7.50;3.85;;;;;;;11.01;100.00;99629.78;5106867;28;20030;-32
2023/04/19 00:26:42;;;;;;;8.95;4.00;;;;;;;11.05;100.00;99624.75;5106905;28;20115;-31
2023/04/19 00:29:08;;;;;;;7.32;3.75;;;;;;;10.97;100.00;99625.09;5106637;28;20103;-30
2023/04/19 00:31:34;;;;;;;7.13;3.92;;;;;;;11.02;100.00;99625.25;5107271;28;20114;-31
2023/04/19 00:33:59;;;;;;;7.03;4.00;;;;;;;11.01;100.00;99620.94;5106568;28;20019;-31
2023/04/19 00:36:25;;;;;;;5.90;3.13;;;;;;;11.14;100.00;99612.69;5106352;28;20076;-31
2023/04/19 00:38:50;;;;;;;8.25;3.33;;;;;;;11.03;100.00;99616.19;5105395;28;20035;-32
2023/04/19 00:41:16;;;;;;;6.60;3.28;;;;;;;10.86;100.00;99610.72;5106519;28;20027;-31
2023/04/19 00:43:42;;;;;;;7.07;3.42;;;;;;;10.94;100.00;99617.59;5106318;28;20015;-31
2023/04/19 00:46:07;;;;;;;6.70;3.38;;;;;;;11.00;100.00;99614.78;5106133;28;20027;-32
2023/04/19 00:48:35;;;;;;;7.10;3.25;;;;;;;10.91;100.00;99615.38;5106848;28;20038;-32
2023/04/19 00:51:01;;;;;;;5.95;3.08;;;;;;;10.96;100.00;99615.50;5105950;28;20066;-32
2023/04/19 00:53:26;;;;;;;5.88;2.85;;;;;;;11.00;100.00;99616.66;5106633;28;20076;-31
2023/04/19 00:55:55;;;;;;;7.88;3.10;;;;;;;10.89;100.00;99604.13;5106205;28;20024;-31
2023/04/19 00:58:21;;;;;;;6.40;2.60;;;;;;;11.02;100.00;99610.03;5106336;28;20873;-31
2023/04/19 01:00:46;;;;;;;5.85;2.58;;;;;;;10.97;100.00;99606.44;5106506;28;20035;-31
2023/04/19 01:03:12;;;;;;;6.00;2.50;;;;;;;10.85;100.00;99606.47;5106229;28;20651;-32
2023/04/19 01:05:37;;;;;;;4.95;2.40;;;;;;;10.90;100.00;99608.41;5106338;28;20070;-31
2023/04/19 01:08:03;;;;;;;6.13;3.05;;;;;;;10.92;100.00;99606.34;5106008;28;20054;-31
2023/04/19 01:10:29;;;;;;;4.80;2.90;;;;;;;10.96;100.00;99599.50;5106315;28;20016;-31
2023/04/19 01:12:54;;;;;;;6.38;2.90;;;;;;;10.97;100.00;99601.09;5106069;28;20024;-31
2023/04/19 01:15:20;;;;;;;5.47;2.67;;;;;;;11.02;100.00;99587.88;5106209;28;20392;-31
2023/04/19 01:17:45;;;;;;;5.43;2.67;;;;;;;10.84;100.00;99594.94;5106108;28;20418;-32
2023/04/19 01:20:11;;;;;;;5.78;2.63;;;;;;;10.77;100.00;99591.59;5106167;28;20418;-32
2023/04/19 01:22:36;;;;;;;6.20;2.80;;;;;;;10.88;100.00;99591.84;5106099;28;20435;-31
2023/04/19 01:25:03;;;;;;;6.50;2.67;;;;;;;10.84;100.00;99586.16;5105946;28;20031;-31
2023/04/19 01:27:28;;;;;;;5.72;2.97;;;;;;;10.83;100.00;99593.34;5106470;28;20024;-32
2023/04/19 01:29:54;;;;;;;7.00;3.10;;;;;;;10.92;100.00;99593.81;5105985;28;20481;-33
2023/04/19 01:32:19;;;;;;;5.70;2.75;;;;;;;10.90;100.00;99590.56;5106138;28;20028;-31
2023/04/19 01:34:46;;;;;;;7.32;3.72;;;;;;;10.88;100.00;99565.16;5105907;28;20571;-31
2023/04/19 01:37:12;;;;;;;5.47;2.70;;;;;;;10.94;100.00;99581.03;5106221;28;20080;-31
2023/04/19 01:39:37;;;;;;;5.65;2.80;;;;;;;10.90;100.00;99587.88;5105850;28;20036;-31
2023/04/19 01:42:03;;;;;;;5.40;2.63;;;;;;;10.89;100.00;99577.44;5106148;28;20035;-31
2023/04/19 01:44:29;;;;;;;5.78;3.15;;;;;;;10.89;100.00;99572.94;5106069;28;20027;-32
2023/04/19 01:46:55;;;;;;;6.35;2.95;;;;;;;10.94;100.00;99569.56;5106012;28;20163;-32
2023/04/19 01:49:20;;;;;;;7.65;3.40;;;;;;;10.96;100.00;99570.13;5106810;28;20035;-32
2023/04/19 01:51:46;;;;;;;6.38;3.30;;;;;;;10.78;100.00;99571.06;5109835;28;20019;-31
2023/04/19 01:54:11;;;;;;;7.05;3.55;;;;;;;10.82;100.00;99578.38;5110177;28;20473;-32
2023/04/19 01:56:37;;;;;;;6.22;3.45;;;;;;;10.79;100.00;99567.38;5109635;28;20034;-31
2023/04/19 01:59:03;;;;;;;7.70;3.53;;;;;;;10.78;100.00;99574.53;5109827;28;20537;-32
2023/04/19 02:01:28;;;;;;;7.13;3.70;;;;;;;10.92;100.00;99563.66;5109402;28;20031;-33
2023/04/19 02:03:56;;;;;;;6.95;3.70;;;;;;;10.83;100.00;99566.66;5109867;28;20031;-33
2023/04/19 02:06:21;;;;;;;9.50;3.70;;;;;;;10.71;100.00;99565.84;5108018;28;20416;-31
2023/04/19 02:08:47;;;;;;;7.60;3.95;;;;;;;10.72;100.00;99562.13;5109326;28;20484;-32
2023/04/19 02:11:16;;;;;;;6.03;3.47;;;;;;;10.77;100.00;99564.94;5109583;28;20024;-32
2023/04/19 02:13:41;;;;;;;6.13;3.70;;;;;;;10.84;100.00;99568.28;5109662;28;20031;-32
2023/04/19 02:16:09;;;;;;;7.90;4.35;;;;;;;10.89;100.00;99564.94;5109763;28;20397;-32
2023/04/19 02:18:37;;;;;;;9.33;4.13;;;;;;;10.80;100.00;99551.13;5109220;28;20066;-31
2023/04/19 02:21:03;;;;;;;6.63;3.97;;;;;;;10.88;100.00;99557.16;5109362;28;20292;-31
2023/04/19 02:23:29;;;;;;;7.45;4.07;;;;;;;10.75;100.00;99540.34;5109016;28;20038;-31
2023/04/19 02:25:54;;;;;;;8.30;3.88;;;;;;;10.71;100.00;99544.53;5109434;28;20024;-31
2023/04/19 02:28:20;;;;;;;7.93;3.72;;;;;;;10.88;100.00;99552.63;5109308;28;20035;-31
2023/04/19 02:30:45;;;;;;;7.63;4.05;;;;;;;10.84;100.00;99546.94;5109033;28;20050;-32
2023/04/19 02:33:11;;;;;;;7.28;3.67;;;;;;;10.84;100.00;99548.81;5109328;28;20023;-31
2023/04/19 02:35:37;;;;;;;7.55;3.97;;;;;;;10.83;100.00;99542.66;5108873;28;20059;-32
2023/04/19 02:38:03;;;;;;;7.63;4.28;;;;;;;11.02;100.00;99539.84;5108795;28;20047;-31
2023/04/19 02:40:29;;;;;;;7.00;3.85;;;;;;;10.81;100.00;99542.09;5108873;27;20023;-31
2023/04/19 02:42:54;;;;;;;7.18;4.18;;;;;;;10.90;100.00;99531.88;5109366;28;20015;-31
2023/04/19 02:45:20;;;;;;;6.38;3.65;;;;;;;10.95;100.00;99545.31;5108792;28;20901;-31
2023/04/19 02:47:45;;;;;;;6.72;3.67;;;;;;;11.00;100.00;99539.28;5108979;28;20817;-31
2023/04/19 02:50:12;;;;;;;6.70;3.42;;;;;;;10.99;100.00;99535.81;5108507;28;20028;-31
2023/04/19 02:52:38;;;;;;;7.07;4.18;;;;;;;11.07;100.00;99526.59;5108813;28;20028;-32
2023/04/19 02:55:05;;;;;;;9.07;3.78;;;;;;;10.99;100.00;99533.13;5107400;28;20035;-31
2023/04/19 02:57:30;;;;;;;6.88;4.05;;;;;;;10.91;100.00;99543.34;5107018;28;20127;-32
2023/04/19 02:59:55;;;;;;;8.18;4.07;;;;;;;10.96;100.00;99540.78;5108724;28;20028;-31
2023/04/19 03:02:21;;;;;;;8.07;4.30;;;;;;;11.11;100.00;99541.09;5107748;28;20028;-32
2023/04/19 03:04:46;;;;;;;6.82;3.95;;;;;;;11.15;100.00;99546.78;5108609;28;20055;-31
2023/04/19 03:07:12;;;;;;;7.70;4.30;;;;;;;11.15;100.00;99547.59;5108046;28;20049;-32
2023/04/19 03:09:38;;;;;;;7.75;4.18;;;;;;;11.15;100.00;99544.91;5108635;28;20032;-32
2023/04/19 03:12:06;;;;;;;7.55;4.25;;;;;;;11.08;100.00;99538.13;5108456;28;20047;-31
2023/04/19 03:14:35;;;;;;;7.78;4.22;;;;;;;11.10;100.00;99542.16;5108407;28;20027;-30
2023/04/19 03:17:00;;;;;;;8.40;4.78;;;;;;;11.06;100.00;99551.69;5108243;28;20031;-32
2023/04/19 03:19:26;;;;;;;8.45;4.70;;;;;;;10.96;100.00;99546.13;5108220;28;20027;-33
2023/04/19 03:21:51;;;;;;;8.77;4.70;;;;;;;10.93;100.00;99535.91;5108315;27;20023;-31
2023/04/19 03:24:26;;;;;;;9.18;4.60;;;;;;;10.92;100.00;99523.63;5108251;28;20038;-31
2023/04/19 03:26:51;;;;;;;9.32;4.88;;;;;;;11.05;100.00;99547.38;5108223;27;20023;-32
2023/04/19 03:29:17;;;;;;;8.30;5.00;;;;;;;10.99;100.00;99540.31;5107955;28;20040;-31
2023/04/19 03:31:42;;;;;;;8.57;4.90;;;;;;;11.15;100.00;99538.78;5108460;28;20064;-32
2023/04/19 03:34:08;;;;;;;9.00;4.75;;;;;;;11.08;100.00;99549.59;5107834;28;20027;-31
2023/04/19 03:36:33;;;;;;;9.25;5.07;;;;;;;11.04;100.00;99543.09;5108128;28;20020;-31
2023/04/19 03:38:58;;;;;;;8.73;4.95;;;;;;;11.10;100.00;99531.50;5107566;28;20424;-30
2023/04/19 03:41:25;;;;;;;9.85;5.28;;;;;;;11.21;100.00;99546.66;5107941;28;20119;-32
2023/04/19 03:43:50;;;;;;;8.27;4.90;;;;;;;11.19;100.00;99539.94;5107749;28;20043;-31
2023/04/19 03:46:16;;;;;;;10.27;5.15;;;;;;;11.14;100.00;99543.31;5107571;28;20414;-32
2023/04/19 03:48:41;;;;;;;9.88;5.13;;;;;;;11.12;100.00;99545.41;5107676;28;20023;-31
2023/04/19 03:51:07;;;;;;;9.75;5.82;;;;;;;11.24;100.00;99540.84;5107666;28;20043;-32
2023/04/19 03:53:32;;;;;;;9.05;5.18;;;;;;;11.32;100.00;99546.84;5107870;28;20556;-31
2023/04/19 03:55:58;;;;;;;9.02;5.50;;;;;;;11.31;100.00;99548.72;5107187;28;20023;-31
2023/04/19 03:58:24;;;;;;;9.43;5.20;;;;;;;11.30;100.00;99538.28;5107429;28;20022;-31
2023/04/19 04:00:50;;;;;;;9.52;5.15;;;;;;;11.36;100.00;99551.50;5107351;28;20077;-31
2023/04/19 04:03:16;;;;;;;13.60;8.55;;;;;;;11.12;100.00;99542.75;5107393;28;20416;-31
2023/04/19 04:05:41;;;;;;;9.80;5.55;;;;;;;11.26;100.00;99551.31;5107460;28;20492;-31
2023/04/19 04:08:07;;;;;;;9.60;5.90;;;;;;;11.18;100.00;99546.34;5107520;28;20078;-31
2023/04/19 04:10:32;;;;;;;10.57;6.20;;;;;;;11.14;100.00;99548.66;5107174;28;20065;-31
2023/04/19 04:12:57;;;;;;;10.25;5.97;;;;;;;10.97;100.00;99547.75;5106838;28;20035;-31
2023/04/19 04:15:23;;;;;;;9.05;5.82;;;;;;;11.11;100.00;99543.78;5107171;28;20023;-30
2023/04/19 04:17:49;;;;;;;9.43;5.80;;;;;;;11.30;100.00;99551.63;5107129;28;20027;-31
2023/04/19 04:20:15;;;;;;;9.35;5.50;;;;;;;11.55;100.00;99552.13;5106999;28;20035;-31
2023/04/19 04:22:47;;;;;;;10.48;5.90;;;;;;;11.16;100.00;99548.44;5106926;28;20563;-31
2023/04/19 04:25:15;;;;;;;8.63;5.20;;;;;;;11.11;100.00;99548.31;5107021;28;20039;-31
2023/04/19 04:27:42;;;;;;;8.95;5.82;;;;;;;11.02;100.00;99543.31;5107303;28;20028;-31
2023/04/19 04:30:09;;;;;;;11.50;6.27;;;;;;;11.25;100.00;99555.81;5106946;28;20035;-31
2023/04/19 04:32:35;;;;;;;9.05;5.57;;;;;;;11.36;100.00;99550.69;5107004;28;20265;-31
2023/04/19 04:35:02;;;;;;;9.13;5.28;;;;;;;11.05;100.00;99531.38;5106721;28;20108;-31
2023/04/19 04:37:28;;;;;;;9.95;6.25;;;;;;;11.31;100.00;99543.38;5107277;28;20053;-31
2023/04/19 04:39:54;;;;;;;13.05;7.78;;;;;;;11.34;100.00;99547.44;5106436;28;20075;-32
2023/04/19 04:42:20;;;;;;;12.40;7.75;;;;;;;11.34;100.00;99553.59;5106659;28;20024;-31
2023/04/19 04:44:46;;;;;;;10.80;6.10;;;;;;;11.24;100.00;99553.41;5106351;28;20443;-32
2023/04/19 04:47:14;;;;;;;12.95;6.65;;;;;;;11.36;100.00;99550.69;5106570;28;20492;-31
2023/04/19 04:49:40;;;;;;;12.80;8.18;;;;;;;11.47;100.00;99552.50;5106813;28;20024;-31
2023/04/19 04:52:07;;;;;;;14.90;8.27;;;;;;;11.35;100.00;99554.41;5106223;28;20780;-31
2023/04/19 04:54:33;;;;;;;9.30;6.05;;;;;;;11.49;100.00;99555.75;5102899;28;20031;-31
2023/04/19 04:56:58;;;;;;;11.88;7.07;;;;;;;11.52;100.00;99563.28;5099014;28;20023;-31
2023/04/19 04:59:24;;;;;;;12.23;7.18;;;;;;;11.59;100.00;99561.28;5105679;28;20032;-33
2023/04/19 05:01:49;;;;;;;11.48;6.35;;;;;;;11.60;100.00;99546.88;5105960;27;20465;-30
2023/04/19 05:04:15;;;;;;;10.13;6.00;;;;;;;11.48;100.00;99554.13;5105816;28;20023;-31
2023/04/19 05:06:40;;;;;;;11.90;6.53;;;;;;;11.48;100.00;99556.00;5105843;28;20051;-31
2023/04/19 05:09:06;;;;;;;10.48;6.18;;;;;;;11.55;100.00;99549.47;5106268;28;20119;-32
2023/04/19 05:11:32;;;;;;;10.57;5.93;;;;;;;11.71;100.00;99563.09;5106075;28;20080;-31
2023/04/19 05:13:58;;;;;;;10.40;6.50;;;;;;;11.73;100.00;99561.84;5106153;28;20024;-31
2023/04/19 05:16:24;;;;;;;9.68;5.75;;;;;;;11.54;100.00;99560.38;5106424;28;20031;-31
2023/04/19 05:18:50;;;;;;;9.77;6.25;;;;;;;11.54;100.00;99558.50;5105988;28;20204;-31
2023/04/19 05:21:15;;;;;;;10.60;6.88;;;;;;;11.50;100.00;99560.03;5106061;28;20027;-31
2023/04/19 05:23:40;;;;;;;10.93;6.97;;;;;;;11.43;100.00;99565.53;5105354;28;20029;-31
2023/04/19 05:26:06;;;;;;;12.10;6.60;;;;;;;11.62;100.00;99562.66;5106052;28;20111;-31
2023/04/19 05:28:31;;;;;;;13.02;6.32;;;;;;;11.55;100.00;99546.81;5105974;28;20030;-31
2023/04/19 05:30:57;;;;;;;11.88;7.22;;;;;;;11.66;100.00;99556.59;5105929;28;20020;-31
2023/04/19 05:33:22;;;;;;;11.93;7.32;;;;;;;11.76;100.00;99560.53;5106127;28;20446;-30
2023/04/19 05:35:48;;;;;;;13.05;6.60;;;;;;;11.74;100.00;99567.97;5104348;28;20027;-33
2023/04/19 05:38:13;;;;;;;13.82;7.45;;;;;;;11.70;100.00;99566.84;5106025;28;20555;-32
2023/04/19 05:40:39;;;;;;;12.40;6.75;;;;;;;11.61;100.00;99567.22;5104272;28;20038;-32
2023/04/19 05:43:04;;;;;;;11.15;7.30;;;;;;;11.72;100.00;99556.72;5106318;28;20523;-31
2023/04/19 05:45:30;;;;;;;12.63;6.85;;;;;;;11.51;100.00;99564.34;5105540;28;20504;-31
2023/04/19 05:47:55;;;;;;;13.48;7.32;;;;;;;11.43;100.00;99572.72;5106052;28;20409;-31
2023/04/19 05:50:21;;;;;;;12.23;7.00;;;;;;;11.58;100.00;99562.31;5105620;28;20041;-31
2023/04/19 05:52:46;;;;;;;12.50;7.28;;;;;;;11.73;100.00;99555.66;5106139;28;20032;-31
2023/04/19 05:55:12;;;;;;;11.73;7.25;;;;;;;11.73;100.00;99575.19;5105544;28;20023;-32
2023/04/19 05:57:37;;;;;;;13.40;7.53;;;;;;;11.66;100.00;99572.63;5105579;28;20027;-32
2023/04/19 06:00:04;;;;;;;24.80;15.48;;;;;;;11.76;100.00;99572.03;5106136;28;20031;-31
2023/04/19 06:02:29;;;;;;;12.98;7.63;;;;;;;11.68;100.00;99566.25;5105551;28;20036;-31
2023/04/19 06:04:56;;;;;;;12.43;7.43;;;;;;;11.80;100.00;99573.16;5105953;28;20727;-31
2023/04/19 06:07:22;;;;;;;13.10;7.65;;;;;;;11.72;100.00;99564.72;5105534;28;20047;-32
2023/04/19 06:09:48;;;;;;;10.98;7.18;;;;;;;11.55;100.00;99554.81;5105664;28;20031;-31
2023/04/19 06:12:13;;;;;;;13.20;7.15;;;;;;;11.77;100.00;99565.66;5105469;28;20052;-32
2023/04/19 06:14:39;;;;;;;14.40;9.02;;;;;;;11.91;100.00;99571.56;5105758;28;20753;-32
2023/04/19 06:17:04;;;;;;;47.33;27.83;;;;;;;11.91;100.00;99574.22;5105702;28;20035;-31
2023/04/19 06:19:32;;;;;;;44.88;26.13;;;;;;;11.98;100.00;99577.53;5105453;28;20030;-32
2023/04/19 06:21:58;;;;;;;;;;;;;;;11.93;100.00;99577.47;5106261;28;20489;-33
2023/04/19 06:24:23;;;;;;;14.80;8.95;;;;;;;11.99;100.00;99573.84;5105422;28;19915;-31
2023/04/19 06:26:48;;;;;;;13.00;7.68;;;;;;;11.95;100.00;99554.00;5105702;28;20475;-32
2023/04/19 06:29:14;;;;;;;12.00;7.22;;;;;;;12.09;100.00;99575.06;5105409;28;20028;-32
2023/04/19 06:31:40;;;;;;;13.05;7.95;;;;;;;11.88;100.00;99571.19;5105729;28;20023;-31
2023/04/19 06:34:05;;;;;;;13.10;7.10;;;;;;;11.95;100.00;99569.19;5110179;28;20028;-31
2023/04/19 06:36:31;;;;;;;15.48;10.02;;;;;;;11.97;100.00;99573.25;5123413;27;20023;-31
2023/04/19 06:38:56;;;;;;;34.15;20.70;;;;;;;12.00;100.00;99571.97;5129590;27;20027;-32
2023/04/19 06:41:22;;;;;;;14.23;8.85;;;;;;;11.85;100.00;99553.78;5117933;27;21050;-31
2023/04/19 06:43:47;;;;;;;15.07;9.80;;;;;;;12.27;100.00;99580.16;5109170;28;20027;-30
2023/04/19 06:46:13;;;;;;;12.55;8.10;;;;;;;12.31;100.00;99575.97;5108748;28;20106;-31
2023/04/19 06:48:38;;;;;;;12.70;7.47;;;;;;;12.35;100.00;99574.44;5109049;28;20412;-31
2023/04/19 06:51:04;;;;;;;10.43;6.95;;;;;;;12.40;100.00;99577.19;5108560;28;20035;-31
2023/04/19 06:53:29;;;;;;;12.35;7.10;;;;;;;12.56;100.00;99578.22;5103148;28;20024;-31
2023/04/19 06:55:59;;;;;;;11.52;6.93;;;;;;;12.58;100.00;99588.69;5099459;28;20032;-31
2023/04/19 06:58:26;;;;;;;12.00;7.38;;;;;;;12.62;100.00;99587.16;5108734;27;20476;-32
2023/04/19 07:00:51;;;;;;;10.88;6.78;;;;;;;12.57;100.00;99581.75;5108589;27;20402;-31
2023/04/19 07:03:17;;;;;;;24.73;16.60;;;;;;;12.48;100.00;99580.50;5108293;28;20733;-31
2023/04/19 07:05:42;;;;;;;13.07;8.18;;;;;;;12.55;100.00;99590.00;5108634;28;20035;-31
2023/04/19 07:08:07;;;;;;;10.63;6.03;;;;;;;12.68;100.00;99588.84;5107252;28;20044;-31
2023/04/19 07:10:33;;;;;;;9.05;5.32;;;;;;;12.73;100.00;99593.47;5108643;28;20453;-31
2023/04/19 07:12:58;;;;;;;10.75;6.03;;;;;;;12.69;100.00;99593.16;5099530;28;20028;-31
2023/04/19 07:15:24;;;;;;;9.70;5.63;;;;;;;12.68;100.00;99588.84;5094793;28;20032;-31
2023/04/19 07:17:49;;;;;;;9.27;6.00;;;;;;;12.63;100.00;99594.13;5087546;28;20021;-31
2023/04/19 07:20:15;;;;;;;9.75;6.38;;;;;;;12.91;100.00;99600.41;5087716;28;20028;-32
2023/04/19 07:22:40;;;;;;;15.50;9.35;;;;;;;13.03;100.00;99595.78;5087717;28;20024;-31
2023/04/19 07:25:06;;;;;;;9.15;6.10;;;;;;;13.05;100.00;99599.81;5087666;28;20032;-31
2023/04/19 07:27:31;;;;;;;78.25;70.13;;;;;;;13.21;100.00;99598.16;5087475;28;20402;-31
2023/04/19 07:29:57;;;;;;;330.42;243.90;;;;;;;13.38;100.00;99608.06;5087426;28;20024;-33
2023/04/19 07:32:22;;;;;;;18.85;11.85;;;;;;;13.19;100.00;99600.28;5112445;27;20035;-32
2023/04/19 07:34:47;;;;;;;24.35;19.30;;;;;;;13.26;100.00;99592.91;5110926;27;20028;-31
2023/04/19 07:37:13;;;;;;;8.93;6.10;;;;;;;13.38;100.00;99606.22;5127209;27;20042;-31
2023/04/19 07:39:38;;;;;;;8.55;5.53;;;;;;;13.40;100.00;99595.22;5128021;27;20027;-30
2023/04/19 07:42:04;;;;;;;7.45;4.70;;;;;;;13.30;100.00;99593.25;5128166;27;20038;-31
2023/04/19 07:44:30;;;;;;;8.57;4.90;;;;;;;13.32;100.00;99609.03;5128216;27;20058;-31
2023/04/19 07:46:55;;;;;;;8.27;5.10;;;;;;;13.57;100.00;99608.56;5127841;27;20487;-31
2023/04/19 07:49:21;;;;;;;7.32;4.55;;;;;;;13.44;100.00;99613.25;5128369;27;20113;-31
2023/04/19 07:51:46;;;;;;;7.53;4.50;;;;;;;13.48;100.00;99618.91;5127926;27;20030;-32
2023/04/19 07:54:12;;;;;;;8.02;4.20;;;;;;;13.36;100.00;99588.75;5128107;27;20029;-32
2023/04/19 07:56:37;;;;;;;8.32;4.70;;;;;;;13.64;100.00;99623.38;5127585;27;20080;-31
2023/04/19 07:59:02;;;;;;;7.75;4.72;;;;;;;13.68;100.00;99618.34;5127150;27;20035;-30
2023/04/19 08:01:28;;;;;;;7.53;5.00;;;;;;;13.83;100.00;99628.41;5127399;27;20469;-30
2023/04/19 08:03:54;;;;;;;8.65;4.45;;;;;;;14.05;100.00;99623.84;5127253;27;20027;-30
2023/04/19 08:06:20;;;;;;;8.27;4.70;;;;;;;13.98;100.00;99617.88;5127081;27;20041;-31
2023/04/19 08:08:46;;;;;;;7.40;5.25;;;;;;;14.07;100.00;99619.03;5127273;27;20035;-30
2023/04/19 08:11:12;;;;;;;7.57;4.38;;;;;;;14.05;100.00;99623.84;5126885;27;20042;-32
2023/04/19 08:13:37;;;;;;;7.50;3.50;;;;;;;14.17;100.00;99625.56;5127539;27;20518;-30
2023/04/19 08:16:02;;;;;;;6.80;3.80;;;;;;;14.33;100.00;99623.84;5127529;27;20026;-31
2023/04/19 08:18:28;;;;;;;8.05;4.03;;;;;;;14.67;100.00;99635.19;5127577;27;20031;-31
2023/04/19 08:20:55;;;;;;;6.20;3.75;;;;;;;14.81;100.00;99622.94;5127629;27;20792;-31
2023/04/19 08:23:20;;;;;;;5.97;3.35;;;;;;;15.09;100.00;99633.59;5127401;27;20680;-31
2023/04/19 08:25:45;;;;;;;5.72;3.20;;;;;;;15.04;100.00;99624.44;5127560;27;20030;-31
2023/04/19 08:28:11;;;;;;;5.82;3.10;;;;;;;15.11;100.00;99629.56;5127599;27;20553;-32
2023/04/19 08:30:37;;;;;;;6.75;3.42;;;;;;;15.30;100.00;99634.50;5125966;27;20463;-31
2023/04/19 08:33:02;;;;;;;5.78;3.15;;;;;;;15.26;100.00;99628.84;5127506;27;20910;-31
2023/04/19 08:35:28;;;;;;;5.93;3.92;;;;;;;15.48;100.00;99626.00;5126866;27;20031;-31
2023/04/19 08:37:54;;;;;;;9.13;7.10;;;;;;;15.58;100.00;99628.72;5127351;27;20019;-31
2023/04/19 08:40:19;;;;;;;5.97;4.03;;;;;;;15.58;100.00;99623.34;5127136;27;20034;-31
2023/04/19 08:42:45;;;;;;;6.38;3.25;;;;;;;15.65;100.00;99623.94;5127273;27;20077;-31
2023/04/19 08:45:12;;;;;;;6.10;3.53;;;;;;;15.83;100.00;99617.31;5127270;27;20027;-31
2023/04/19 08:47:39;;;;;;;7.30;3.83;;;;;;;15.70;100.00;99615.06;5126766;27;20035;-32
2023/04/19 08:50:06;;;;;;;8.17;4.90;;;;;;;15.97;100.00;99620.28;5127481;27;20026;-31
2023/04/19 08:52:36;;;;;;;18.13;15.13;;;;;;;16.13;100.00;99613.06;5126680;27;20023;-33
2023/04/19 08:55:07;;;;;;;6.38;3.65;;;;;;;16.29;98.25;99611.19;5126943;27;20035;-31
2023/04/19 08:57:34;;;;;;;7.22;3.60;;;;;;;16.61;100.00;99623.59;5126789;27;20030;-31
2023/04/19 09:00:00;;;;;;;4.90;2.85;;;;;;;16.58;94.93;99624.94;5126300;27;20035;-31
2023/04/19 09:02:26;;;;;;;4.05;2.78;;;;;;;16.42;95.40;99618.72;5127105;27;20075;-32
2023/04/19 09:04:51;;;;;;;46.95;34.28;;;;;;;16.65;96.82;99614.72;5126631;27;20031;-33
2023/04/19 09:07:27;;;;;;;7.45;3.40;;;;;;;16.54;96.81;99626.56;5126433;27;20099;-31
2023/04/19 09:10:10;;;;;;;121.45;109.82;;;;;;;16.47;98.77;99621.44;5126672;27;20027;-31
2023/04/19 09:12:36;;;;;;;22.63;20.45;;;;;;;16.48;98.54;99623.03;5115375;27;20564;-32
2023/04/19 09:15:07;;;;;;;7.15;4.47;;;;;;;16.52;98.23;99609.06;5103990;28;20027;-33
2023/04/19 09:17:33;;;;;;;6.00;4.18;;;;;;;16.38;97.29;99623.03;5105701;28;20036;-31
2023/04/19 09:19:58;;;;;;;5.78;3.08;;;;;;;16.59;96.76;99631.94;5105892;28;20084;-32
2023/04/19 09:22:24;;;;;;;8.57;7.65;;;;;;;16.72;88.12;99619.81;5105746;28;20710;-32
2023/04/19 09:24:50;;;;;;;2.88;1.63;;;;;;;16.95;86.33;99633.84;5105052;28;20107;-31
2023/04/19 09:27:35;;;;;;;3.20;2.00;;;;;;;17.20;79.86;99625.72;5105497;28;20035;-31
2023/04/19 09:30:02;;;;;;;5.05;2.42;;;;;;;17.48;82.48;99636.94;5106121;28;20028;-31
2023/04/19 09:32:42;;;;;;;3.97;2.58;;;;;;;17.73;79.25;99636.03;5106195;28;20110;-32
2023/04/19 09:35:08;;;;;;;9.45;4.68;;;;;;;17.78;84.90;99625.22;5105942;28;20401;-31
2023/04/19 09:37:34;;;;;;;3.45;1.52;;;;;;;17.85;84.14;99622.25;5104431;28;20039;-31
2023/04/19 09:40:01;;;;;;;2.20;1.55;;;;;;;17.94;76.48;99623.28;5104697;28;20050;-32
2023/04/19 09:42:44;;;;;;;3.28;1.73;;;;;;;18.18;78.66;99628.00;5104835;28;20020;-31
2023/04/19 09:45:10;;;;;;;4.07;1.50;;;;;;;17.67;78.84;99624.47;5103821;28;20036;-34
2023/04/19 09:47:35;;;;;;;12.05;10.93;;;;;;;18.03;79.67;99618.91;5104889;28;20491;-33
2023/04/19 09:50:05;;;;;;;6.72;4.53;;;;;;;18.10;77.22;99618.59;5104594;28;20464;-32
2023/04/19 09:52:32;;;;;;;6.65;4.53;;;;;;;18.34;80.41;99602.50;5104594;28;20027;-32
2023/04/19 09:55:04;;;;;;;4.72;2.75;;;;;;;18.19;77.99;99624.22;5104169;28;20019;-32
2023/04/19 09:57:33;;;;;;;4.30;2.50;;;;;;;18.23;77.92;99617.97;5104638;28;20146;-32
2023/04/19 09:59:59;;;;;;;7.63;2.70;;;;;;;18.20;74.54;99615.03;5104728;28;20042;-32
2023/04/19 10:02:31;;;;;;;7.78;3.92;;;;;;;18.09;79.09;99602.69;5105446;28;20039;-32
2023/04/19 10:04:57;;;;;;;9.25;6.60;;;;;;;17.91;80.75;99599.56;5105802;28;20033;-32
2023/04/19 10:07:23;;;;;;;10.68;7.53;;;;;;;18.22;83.99;99610.16;5105673;28;20036;-31
2023/04/19 10:09:50;;;;;;;7.97;4.70;;;;;;;18.31;77.95;99605.78;5105859;28;20027;-31
2023/04/19 10:12:15;;;;;;;3.85;2.40;;;;;;;18.62;76.76;99611.72;5109455;28;20411;-32
2023/04/19 10:14:42;;;;;;;5.85;2.83;;;;;;;18.43;77.15;99606.22;5109469;28;20496;-32
2023/04/19 10:17:07;;;;;;;4.28;2.17;;;;;;;17.46;87.16;99606.75;5109600;28;20028;-31
2023/04/19 10:19:36;;;;;;;5.28;2.90;;;;;;;17.66;82.39;99590.47;5109522;28;20032;-32
2023/04/19 10:22:04;;;;;;;2.97;1.98;;;;;;;18.17;73.08;99602.91;5109594;28;20028;-32
2023/04/19 10:24:30;;;;;;;5.20;2.10;;;;;;;18.16;74.50;99603.97;5109491;27;20019;-32
2023/04/19 10:27:15;;;;;;;3.20;2.00;;;;;;;18.31;71.19;99604.94;5109290;28;20028;-33
2023/04/19 10:30:09;;;;;;;3.40;1.90;;;;;;;18.28;75.28;99587.44;5108610;28;20439;-31
2023/04/19 10:32:38;;;;;;;4.20;2.03;;;;;;;18.83;70.09;99601.56;5109466;28;20032;-32
2023/04/19 10:35:21;;;;;;;39.05;35.65;;;;;;;19.05;74.65;99586.78;5109022;28;20060;-32
2023/04/19 10:38:13;;;;;;;21.02;19.23;;;;;;;19.30;66.67;99593.78;5108950;28;20529;-32
2023/04/19 10:40:55;;;;;;;20.05;18.27;;;;;;;19.81;62.06;99600.50;5109236;28;20039;-31
2023/04/19 10:43:22;;;;;;;8.57;6.65;;;;;;;19.43;62.05;99600.38;5109158;28;20031;-32
2023/04/19 10:45:47;;;;;;;1.65;0.93;;;;;;;19.81;51.95;99595.06;5109240;28;20034;-33
2023/04/19 10:48:34;;;;;;;2.20;1.30;;;;;;;20.12;62.69;99591.94;5108871;28;20027;-33
2023/04/19 10:51:14;;;;;;;1.50;1.00;;;;;;;20.52;55.35;99584.28;5108517;28;20040;-31
2023/04/19 10:54:17;;;;;;;2.42;1.00;;;;;;;19.88;62.55;99582.00;5108429;28;20027;-31
2023/04/19 10:57:06;;;;;;;5.38;2.85;;;;;;;19.45;63.44;99584.69;5094557;28;20127;-31
2023/04/19 10:59:36;;;;;;;1.92;1.13;;;;;;;19.74;62.98;99589.25;5108876;28;20063;-31
2023/04/19 11:02:04;;;;;;;35.35;30.00;;;;;;;20.58;59.84;99583.09;5108843;28;20028;-31
2023/04/19 11:04:29;;;;;;;;;;;;;;;19.39;63.03;99583.13;5108928;28;20034;-31
2023/04/19 11:06:56;;;;;;;4.75;1.95;;;;;;;19.82;59.58;99573.16;5108414;28;19920;-31
2023/04/19 11:09:25;;;;;;;51.40;35.70;;;;;;;20.91;54.52;99574.94;5108690;27;20114;-31
2023/04/19 11:11:51;;;;;;;6.15;2.72;;;;;;;20.61;58.76;99563.53;5107675;28;20032;-31
2023/04/19 11:14:19;;;;;;;98.30;55.05;;;;;;;21.20;52.82;99578.16;5101691;28;20027;-31
2023/04/19 11:16:44;;;;;;;;;;;;;;;21.16;53.62;99571.72;5101053;27;20019;-31
2023/04/19 11:19:16;;;;;;;11.48;6.93;;;;;;;20.79;54.11;99562.66;5091845;28;19904;-32
2023/04/19 11:21:45;;;;;;;108.68;69.25;;;;;;;20.77;54.48;99551.31;5086869;28;20023;-32
2023/04/19 11:24:11;;;;;;;46.88;29.55;;;;;;;20.79;59.37;99570.00;5087442;28;20114;-31